AirNav   Everest Fuels
 
 966 users online  

13K Lt. William M. Milliken Airport
Eureka, Kansas, USA

GOING TO EUREKA?


FAA INFORMATION EFFECTIVE 02 JANUARY 2020

Location

FAA Identifier: 13K
Lat/Long: 37-51-05.8000N 096-17-31.3000W
37-51.096667N 096-17.521667W
37.8516111,-96.2920278
(estimated)
Elevation: 1208.1 ft. / 368.2 m (surveyed)
Variation: 06E (1985)
From city: 2 miles N of EUREKA, KS
Time zone: UTC -6 (UTC -5 during Daylight Saving Time)
Zip code: 67045

Airport Operations

Airport use: Open to the public
Activation date: 07/1959
Control tower: no
ARTCC: KANSAS CITY CENTER
FSS: WICHITA FLIGHT SERVICE STATION
NOTAMs facility: ICT (NOTAM-D service available)
Attendance: 0800-1700
Wind indicator: lighted, WIND INDICATOR IS FADED.
Segmented circle: yes
Lights: ACTVT MIRLS RWY 18/36 - CTAF.
Beacon: white-green (lighted land airport)
Operates sunset to sunrise.

Airport Communications

CTAF/UNICOM: 122.8
WX AWOS-3: 120.975 (620-583-2760)
  • APCH/DEP SVC PRVDD BY KANSAS CITY ARTCC ON FREQS 120.2/323.2 (EMPORIA RCAG).

Nearby radio navigation aids

VOR radial/distance  VOR name  Freq  Var
EMPr187/27.4EMPORIA VORTAC112.8008E
CNUr287/35.8CHANUTE VOR/DME109.2005E

 
NDB name  Hdg/Dist  Freq  Var  ID
BOYD220/38.124505EUKL ..- -.- .-..

Airport Services

Fuel available: 100LL MOGAS
Parking: tiedowns
Airframe service: MAJOR
Powerplant service: MAJOR
Bottled oxygen: NONE
Bulk oxygen: NONE

Runway Information

Runway 18/36

Dimensions: 3504 x 60 ft. / 1068 x 18 m
Surface: asphalt, in fair condition
Weight bearing capacity: 
Single wheel: 8.0
Runway edge lights: medium intensity
Runway edge markings: NRS ARE FADED DUE TO AGE AND WEATHER.
Gradient: N
RUNWAY 18  RUNWAY 36
Latitude: 37-51.323765N37-50.756317N
Longitude: 096-17.419327W096-17.552978W
Elevation: 1206.4 ft.1195.6 ft.
Traffic pattern: leftleft
Runway heading: 185 magnetic, 191 true005 magnetic, 011 true
Markings: numbers only, in poor conditionnumbers only, in poor condition
Visual slope indicator: 2-light PAPI on left (3.00 degrees glide path)2-light PAPI on left (3.00 degrees glide path)
Runway end identifier lights: nono
Touchdown point: yes, no lightsyes, no lights

Runway 8/26

Dimensions: 2146 x 55 ft. / 654 x 17 m
Surface: turf, in fair condition
Runway edge markings: WHITE TIRES MARK RY END.
Gradient: E
RUNWAY 8  RUNWAY 26
Latitude: 37-51.182243N37-51.197352N
Longitude: 096-17.802540W096-17.356937W
Elevation: 1194.6 ft.1208.1 ft.
Traffic pattern: leftleft
Runway heading: 081 magnetic, 087 true261 magnetic, 267 true
Runway end identifier lights: nono
Touchdown point: yes, no lightsyes, no lights
Obstructions: 4 ft. fence, marked, 76 ft. from runway, 19:1 slope to clear
DELINEATED WITH WHITE PAINTED TIRES.
23 ft. pline, 502 ft. from runway, 21:1 slope to clear

Airport Ownership and Management from official FAA records

Ownership: Publicly-owned
Owner: CITY OF EUREKA
MEMORIAL HALL
EUREKA, KS 67045
Phone 620-583-6511
Manager: LARRY DUTTON
1667 P ROAD
EUREKA, KS 67045
Phone 620-583-7732

Airport Operational Statistics

Aircraft based on the field: 10
Single engine airplanes: 10
    
Aircraft operations: avg 94/week *
80% local general aviation
20% transient general aviation
* for 12-month period ending 01 September 2017

Additional Remarks

A58-36 GROUND DROPS DOWN ABRUPTLY 85 FT FM END OF RY.
WILDLIFE ON & INVOF ARPT.
FOR CD CTC KANSAS CITY ARTCC AT 913-254-8508.

Instrument Procedures

NOTE: All procedures below are presented as PDF files. If you need a reader for these files, you should download the free Adobe Reader.

NOT FOR NAVIGATION. Please procure official charts for flight.
FAA instrument procedures published for use from 02 January 2020 at 0901Z to 30 January 2020 at 0900Z.

 
IAPs - Instrument Approach Procedures
RNAV (GPS) RWY 18   download (183KB)
VOR/DME RWY 18   download (192KB)
NOTE: Special Take-Off Minimums/Departure Procedures apply   download (213KB)

Other nearby airports with instrument procedures:

KEQA - El Dorado/Captain Jack Thomas Memorial Airport (25 nm W)
KEMP - Emporia Municipal Airport (29 nm N)
KUKL - Coffey County Airport (38 nm NE)
3AU - Augusta Municipal Airport (39 nm W)
1K1 - Lloyd Stearman Field Airport (39 nm W)
 
Loc | Ops | Rwys | IFR | FBO | Links
Com | Nav | Svcs | Stats | Notes

Kansas City Aviation Department
 
Area around 13K (Lt. William M. Milliken Airport)
 
Road maps at: MapQuest Bing Google
 
Aerial photo
WARNING: Photo may not be current or correct
Aerial photo of 13K (Lt. William M. Milliken Airport)
Photo by David Newcomer
Photo taken 17-Oct-2015
from 4,500 altitude looking southeast.

Do you have a better or more recent aerial photo of Lt. William M. Milliken Airport that you would like to share? If so, please send us your photo.

 
Sectional chart

 
Airport distance calculator
Flying to Lt. William M. Milliken Airport? Find the distance to fly.

From to 13K

Sunrise and sunset
Times for 25-Jan-2020
 Local
(UTC-6)
 Zulu
(UTC)
Morning civil twilight07:0813:08
Sunrise07:3613:36
Sunset17:3923:39
Evening civil twilight18:0800:08

Current date and time
Zulu (UTC)  25-Jan-2020 06:20:16
Local (UTC-6)  25-Jan-2020 00:20:16
 
METAR
KEQA 
25nm W 
250555Z AUTO 05004KT 10SM CLR M01/M02 A3009 RMK AO2
KEMP 
29nm N 
250553Z AUTO 26006KT 7SM CLR M04/M05 A3009 RMK AO2 SLP206 T10441050 10000 21050 400001050 53001
K3AU 
39nm W 
250555Z AUTO 00000KT 10SM SCT110 M01/M02 A3010 RMK AO2
K1K1 
39nm W 
250555Z AUTO 00000KT 10SM SCT010 SCT100 M02/M03 A3010 RMK AO2 T10171028 10003 21018 400101018
KCNU 
40nm E 
250552Z AUTO 31005KT 10SM CLR M02/M04 A3011 RMK AO2 SLP202 T10171039 10017 21022 400221022 50000
KK88 
43nm E 
250555Z AUTO 00000KT 7SM CLR M03/M03 A3012 RMK AO1 T10301035 10002 21030
KAAO 
44nm W 
250554Z AUTO 00000KT 10SM FEW010 SCT110 M02/M04 A3010 RMK AO2 SLP208 T10221039 10006 21022 400171022 53001
KBEC 
45nm W 
250555Z AUTO 22003KT 10SM SCT011 BKN110 M02/M04 A3010 RMK AO2 T10241036 10007 21029 400161029
KEWK 
47nm W 
250556Z AUTO 03003KT 10SM OVC006 M02/M03 A3009 RMK AO2 SLP202 T10221033 11006 21022 56001 FZRANO
KIDP 
48nm SE 
250550Z AUTO 00000KT 10SM CLR M03/M04 A3014 RMK AO2 T10301035 10014 21035
TAF
KCNU 
40nm E 
250527Z 2506/2606 VRB03KT P6SM SCT250 FM251200 VRB04KT P6SM SCT025 TEMPO 2512/2514 4SM BR BKN025 FM251400 VRB03KT P6SM BKN030 FM251500 VRB03KT P6SM BKN045 FM251700 VRB03KT P6SM SCT110
KIAB 
48nm W 
250200Z 2502/2608 VRB06KT 9999 SKC QNH3007INS BECMG 2508/2509 VRB06KT 9999 BKN060 650603 510343 QNH3002INS BECMG 2517/2518 15009KT 9999 BKN060 650606 510272 QNH2996INS BECMG 2523/2524 VRB06KT 9999 OVC035 650607 QNH2998INS BECMG 2602/2603 VRB06KT 8000 -DZ BR BKN004 650805 QNH3000INS BECMG 2605/2606 VRB06KT 8000 BR OVC004 650604 QNH2998INS TX08/2520Z TNM04/2511Z
NOTAMs
Click for the latest NOTAMs
NOTAMs are issued by the DoD/FAA and will open in a separate window not controlled by AirNav.

 

 
 

FBO, Fuel Providers, and Aircraft Ground Support

  
 Business Name 
 
 Contact 
 
 Services / Description 
 
Fuel Prices
 
Comments
  
Captain D Aviation 620-583-7732
no information available

If you are affiliated with Captain D Aviation and would like to show here your services, contact info, web link, logo, and more, click here
100LL
FS $4.69 
 Updated 07-Jan-2020
 
   write
FS=Full service
Update Fuel Prices
 

Would you like to see your business listed on this page?

 If your business provides an interesting product or service to pilots, flight crews, aircraft, or users of the Lt. William M. Milliken Airport, you should consider listing it here.  To start the listing process, click on the button below
 
Add a business
 

Other Pages about Lt. William M. Milliken Airport

Update a link
 
Copyright © AirNav, LLC. All rights reserved. Privacy Policy  Contact